sensor_id;sensor_type;location;lat;lon;timestamp;temperature;humidity
14511;DHT22;7341;50.930;4.038;2023-02-18T00:01:22;11.50;99.90
14511;DHT22;7341;50.930;4.038;2023-02-18T00:03:49;11.40;99.90
14511;DHT22;7341;50.930;4.038;2023-02-18T00:06:18;11.40;99.90
14511;DHT22;7341;50.930;4.038;2023-02-18T00:08:45;11.40;99.90
14511;DHT22;7341;50.930;4.038;2023-02-18T00:11:13;11.40;99.90
14511;DHT22;7341;50.930;4.038;2023-02-18T00:13:41;11.40;99.90
14511;DHT22;7341;50.930;4.038;2023-02-18T00:16:10;11.40;99.90
14511;DHT22;7341;50.930;4.038;2023-02-18T00:18:39;11.40;99.90
14511;DHT22;7341;50.930;4.038;2023-02-18T00:21:07;11.40;99.90
14511;DHT22;7341;50.930;4.038;2023-02-18T00:23:34;11.40;99.90
14511;DHT22;7341;50.930;4.038;2023-02-18T00:26:05;11.40;99.90
14511;DHT22;7341;50.930;4.038;2023-02-18T00:28:33;11.40;99.90
14511;DHT22;7341;50.930;4.038;2023-02-18T00:31:05;11.30;99.90
14511;DHT22;7341;50.930;4.038;2023-02-18T00:33:33;11.40;99.90
14511;DHT22;7341;50.930;4.038;2023-02-18T00:36:02;11.30;99.90
14511;DHT22;7341;50.930;4.038;2023-02-18T00:38:29;11.40;99.90
14511;DHT22;7341;50.930;4.038;2023-02-18T00:40:57;11.40;99.90
14511;DHT22;7341;50.930;4.038;2023-02-18T00:43:24;11.30;99.90
14511;DHT22;7341;50.930;4.038;2023-02-18T00:45:51;11.30;99.90
14511;DHT22;7341;50.930;4.038;2023-02-18T00:48:18;11.30;99.90
14511;DHT22;7341;50.930;4.038;2023-02-18T00:50:45;11.40;99.90
14511;DHT22;7341;50.930;4.038;2023-02-18T00:53:14;11.40;99.90
14511;DHT22;7341;50.930;4.038;2023-02-18T00:55:43;11.20;99.90
14511;DHT22;7341;50.930;4.038;2023-02-18T00:58:13;11.30;99.90
14511;DHT22;7341;50.930;4.038;2023-02-18T01:00:41;11.30;99.90
14511;DHT22;7341;50.930;4.038;2023-02-18T01:03:10;11.30;99.90
14511;DHT22;7341;50.930;4.038;2023-02-18T01:05:38;11.20;99.90
14511;DHT22;7341;50.930;4.038;2023-02-18T01:08:07;11.20;99.90
14511;DHT22;7341;50.930;4.038;2023-02-18T01:10:39;11.30;99.90
14511;DHT22;7341;50.930;4.038;2023-02-18T01:13:08;11.20;99.90
14511;DHT22;7341;50.930;4.038;2023-02-18T01:15:36;11.20;99.90
14511;DHT22;7341;50.930;4.038;2023-02-18T01:18:04;11.20;99.90
14511;DHT22;7341;50.930;4.038;2023-02-18T01:20:33;11.20;99.90
14511;DHT22;7341;50.930;4.038;2023-02-18T01:23:00;11.20;99.90
14511;DHT22;7341;50.930;4.038;2023-02-18T01:25:27;11.20;99.90
14511;DHT22;7341;50.930;4.038;2023-02-18T01:27:55;11.10;99.90
14511;DHT22;7341;50.930;4.038;2023-02-18T01:30:24;11.10;99.90
14511;DHT22;7341;50.930;4.038;2023-02-18T01:32:54;11.10;99.90
14511;DHT22;7341;50.930;4.038;2023-02-18T01:35:21;11.10;99.90
14511;DHT22;7341;50.930;4.038;2023-02-18T01:37:49;11.10;99.90
14511;DHT22;7341;50.930;4.038;2023-02-18T01:40:18;11.30;99.90
14511;DHT22;7341;50.930;4.038;2023-02-18T01:42:45;11.10;99.90
14511;DHT22;7341;50.930;4.038;2023-02-18T01:48:26;11.10;99.90
14511;DHT22;7341;50.930;4.038;2023-02-18T01:50:56;11.00;99.90
14511;DHT22;7341;50.930;4.038;2023-02-18T01:53:29;11.00;99.90
14511;DHT22;7341;50.930;4.038;2023-02-18T01:55:58;11.00;99.90
14511;DHT22;7341;50.930;4.038;2023-02-18T01:58:26;11.00;99.90
14511;DHT22;7341;50.930;4.038;2023-02-18T02:00:53;10.90;99.90
14511;DHT22;7341;50.930;4.038;2023-02-18T02:03:20;11.00;99.90
14511;DHT22;7341;50.930;4.038;2023-02-18T02:05:48;11.00;99.90
14511;DHT22;7341;50.930;4.038;2023-02-18T02:08:15;11.00;99.90
14511;DHT22;7341;50.930;4.038;2023-02-18T02:10:57;10.90;99.90
14511;DHT22;7341;50.930;4.038;2023-02-18T02:13:33;10.90;99.90
14511;DHT22;7341;50.930;4.038;2023-02-18T02:16:08;10.90;99.90
14511;DHT22;7341;50.930;4.038;2023-02-18T02:18:47;10.90;99.90
14511;DHT22;7341;50.930;4.038;2023-02-18T02:21:44;10.90;99.90
14511;DHT22;7341;50.930;4.038;2023-02-18T02:31:02;10.90;99.90
14511;DHT22;7341;50.930;4.038;2023-02-18T02:34:02;10.80;99.90
14511;DHT22;7341;50.930;4.038;2023-02-18T02:36:38;10.80;99.90
14511;DHT22;7341;50.930;4.038;2023-02-18T02:39:13;10.80;99.90
14511;DHT22;7341;50.930;4.038;2023-02-18T02:41:45;10.80;99.90
14511;DHT22;7341;50.930;4.038;2023-02-18T02:44:20;10.80;99.90
14511;DHT22;7341;50.930;4.038;2023-02-18T02:46:50;10.80;99.90
14511;DHT22;7341;50.930;4.038;2023-02-18T02:49:27;10.80;99.90
14511;DHT22;7341;50.930;4.038;2023-02-18T02:52:03;10.80;99.90
14511;DHT22;7341;50.930;4.038;2023-02-18T02:54:31;10.70;99.90
14511;DHT22;7341;50.930;4.038;2023-02-18T02:57:07;10.70;99.90
14511;DHT22;7341;50.930;4.038;2023-02-18T02:59:36;10.70;99.90
14511;DHT22;7341;50.930;4.038;2023-02-18T03:05:09;10.60;99.90
14511;DHT22;7341;50.930;4.038;2023-02-18T03:08:00;10.70;99.90
14511;DHT22;7341;50.930;4.038;2023-02-18T03:10:38;10.70;99.90
14511;DHT22;7341;50.930;4.038;2023-02-18T03:13:15;10.60;99.90
14511;DHT22;7341;50.930;4.038;2023-02-18T03:15:49;10.70;99.90
14511;DHT22;7341;50.930;4.038;2023-02-18T03:18:22;10.70;99.90
14511;DHT22;7341;50.930;4.038;2023-02-18T03:20:54;10.70;99.90
14511;DHT22;7341;50.930;4.038;2023-02-18T03:23:27;10.60;99.90
14511;DHT22;7341;50.930;4.038;2023-02-18T03:25:55;10.60;99.90
14511;DHT22;7341;50.930;4.038;2023-02-18T03:28:27;10.60;99.90
14511;DHT22;7341;50.930;4.038;2023-02-18T03:31:00;10.60;99.90
14511;DHT22;7341;50.930;4.038;2023-02-18T03:33:36;10.60;99.90
14511;DHT22;7341;50.930;4.038;2023-02-18T03:36:03;10.60;99.90
14511;DHT22;7341;50.930;4.038;2023-02-18T03:38:35;10.70;99.90
14511;DHT22;7341;50.930;4.038;2023-02-18T03:41:04;10.70;99.90
14511;DHT22;7341;50.930;4.038;2023-02-18T03:43:31;10.60;99.90
14511;DHT22;7341;50.930;4.038;2023-02-18T03:45:58;10.60;99.90
14511;DHT22;7341;50.930;4.038;2023-02-18T03:48:25;10.60;99.90
14511;DHT22;7341;50.930;4.038;2023-02-18T03:50:52;10.60;99.90
14511;DHT22;7341;50.930;4.038;2023-02-18T03:53:21;10.60;99.90
14511;DHT22;7341;50.930;4.038;2023-02-18T03:55:49;10.60;99.90
14511;DHT22;7341;50.930;4.038;2023-02-18T03:58:19;10.70;99.90
14511;DHT22;7341;50.930;4.038;2023-02-18T04:00:46;10.70;99.90
14511;DHT22;7341;50.930;4.038;2023-02-18T04:03:19;10.70;99.90
14511;DHT22;7341;50.930;4.038;2023-02-18T04:05:46;10.60;99.90
14511;DHT22;7341;50.930;4.038;2023-02-18T04:08:13;10.60;99.90
14511;DHT22;7341;50.930;4.038;2023-02-18T04:10:40;10.60;99.90
14511;DHT22;7341;50.930;4.038;2023-02-18T04:13:08;10.60;99.90
14511;DHT22;7341;50.930;4.038;2023-02-18T04:15:35;10.70;99.90
14511;DHT22;7341;50.930;4.038;2023-02-18T04:18:03;10.60;99.90
14511;DHT22;7341;50.930;4.038;2023-02-18T04:20:31;10.60;99.90
14511;DHT22;7341;50.930;4.038;2023-02-18T04:22:59;10.70;99.90
14511;DHT22;7341;50.930;4.038;2023-02-18T04:25:27;10.60;99.90
14511;DHT22;7341;50.930;4.038;2023-02-18T04:27:55;10.60;99.90
14511;DHT22;7341;50.930;4.038;2023-02-18T04:30:23;10.60;99.90
14511;DHT22;7341;50.930;4.038;2023-02-18T04:32:50;10.60;99.90
14511;DHT22;7341;50.930;4.038;2023-02-18T04:35:17;10.60;99.90
14511;DHT22;7341;50.930;4.038;2023-02-18T04:37:44;10.60;99.90
14511;DHT22;7341;50.930;4.038;2023-02-18T04:40:11;10.60;99.90
14511;DHT22;7341;50.930;4.038;2023-02-18T04:42:38;10.60;99.90
14511;DHT22;7341;50.930;4.038;2023-02-18T04:45:06;10.60;99.90
14511;DHT22;7341;50.930;4.038;2023-02-18T04:47:35;10.50;99.90
14511;DHT22;7341;50.930;4.038;2023-02-18T04:50:04;10.50;99.90
14511;DHT22;7341;50.930;4.038;2023-02-18T04:52:31;10.50;99.90
14511;DHT22;7341;50.930;4.038;2023-02-18T04:54:57;10.50;99.90
14511;DHT22;7341;50.930;4.038;2023-02-18T04:57:24;10.50;99.90
14511;DHT22;7341;50.930;4.038;2023-02-18T04:59:51;10.50;99.90
14511;DHT22;7341;50.930;4.038;2023-02-18T05:02:18;10.50;99.90
14511;DHT22;7341;50.930;4.038;2023-02-18T05:04:46;10.40;99.90
14511;DHT22;7341;50.930;4.038;2023-02-18T05:07:14;10.40;99.90
14511;DHT22;7341;50.930;4.038;2023-02-18T05:09:41;10.40;99.90
14511;DHT22;7341;50.930;4.038;2023-02-18T05:12:08;10.40;99.90
14511;DHT22;7341;50.930;4.038;2023-02-18T05:14:35;10.30;99.90
14511;DHT22;7341;50.930;4.038;2023-02-18T05:17:02;10.50;99.90
14511;DHT22;7341;50.930;4.038;2023-02-18T05:19:30;10.20;99.90
14511;DHT22;7341;50.930;4.038;2023-02-18T05:21:58;10.30;99.90
14511;DHT22;7341;50.930;4.038;2023-02-18T05:24:25;10.30;99.90
14511;DHT22;7341;50.930;4.038;2023-02-18T05:26:54;10.30;99.90
14511;DHT22;7341;50.930;4.038;2023-02-18T05:29:23;10.30;99.90
14511;DHT22;7341;50.930;4.038;2023-02-18T05:31:51;10.30;99.90
14511;DHT22;7341;50.930;4.038;2023-02-18T05:34:17;10.20;99.90
14511;DHT22;7341;50.930;4.038;2023-02-18T05:36:45;10.20;99.90
14511;DHT22;7341;50.930;4.038;2023-02-18T05:39:13;10.30;99.90
14511;DHT22;7341;50.930;4.038;2023-02-18T05:41:40;10.30;99.90
14511;DHT22;7341;50.930;4.038;2023-02-18T05:44:06;10.50;99.90
14511;DHT22;7341;50.930;4.038;2023-02-18T05:46:51;10.50;99.90
14511;DHT22;7341;50.930;4.038;2023-02-18T05:49:18;10.50;99.90
14511;DHT22;7341;50.930;4.038;2023-02-18T05:51:45;10.50;99.90
14511;DHT22;7341;50.930;4.038;2023-02-18T05:54:14;10.60;99.90
14511;DHT22;7341;50.930;4.038;2023-02-18T05:56:41;10.60;99.90
14511;DHT22;7341;50.930;4.038;2023-02-18T05:59:08;10.60;99.90
14511;DHT22;7341;50.930;4.038;2023-02-18T06:01:35;10.60;99.90
14511;DHT22;7341;50.930;4.038;2023-02-18T06:04:02;10.60;99.90
14511;DHT22;7341;50.930;4.038;2023-02-18T06:06:29;10.60;99.90
14511;DHT22;7341;50.930;4.038;2023-02-18T06:08:56;10.60;99.90
14511;DHT22;7341;50.930;4.038;2023-02-18T06:11:25;10.60;99.90
14511;DHT22;7341;50.930;4.038;2023-02-18T06:13:53;10.60;99.90
14511;DHT22;7341;50.930;4.038;2023-02-18T06:16:19;10.60;99.90
14511;DHT22;7341;50.930;4.038;2023-02-18T06:18:46;10.60;99.90
14511;DHT22;7341;50.930;4.038;2023-02-18T06:21:13;10.60;99.90
14511;DHT22;7341;50.930;4.038;2023-02-18T06:23:40;10.50;99.90
14511;DHT22;7341;50.930;4.038;2023-02-18T06:26:07;10.50;99.90
14511;DHT22;7341;50.930;4.038;2023-02-18T06:28:36;10.50;99.90
14511;DHT22;7341;50.930;4.038;2023-02-18T06:31:03;10.60;99.90
14511;DHT22;7341;50.930;4.038;2023-02-18T06:33:30;10.60;99.90
14511;DHT22;7341;50.930;4.038;2023-02-18T06:35:59;10.70;99.90
14511;DHT22;7341;50.930;4.038;2023-02-18T06:38:26;10.60;99.90
14511;DHT22;7341;50.930;4.038;2023-02-18T06:40:54;10.70;99.90
14511;DHT22;7341;50.930;4.038;2023-02-18T06:43:23;10.70;99.90
14511;DHT22;7341;50.930;4.038;2023-02-18T06:45:51;10.70;99.90
14511;DHT22;7341;50.930;4.038;2023-02-18T06:48:19;10.60;99.90
14511;DHT22;7341;50.930;4.038;2023-02-18T06:50:49;10.60;99.90
14511;DHT22;7341;50.930;4.038;2023-02-18T06:53:17;10.60;99.90
14511;DHT22;7341;50.930;4.038;2023-02-18T06:55:44;10.60;99.90
14511;DHT22;7341;50.930;4.038;2023-02-18T06:58:12;10.60;99.90
14511;DHT22;7341;50.930;4.038;2023-02-18T07:00:41;10.60;99.90
14511;DHT22;7341;50.930;4.038;2023-02-18T07:03:10;10.70;99.90
14511;DHT22;7341;50.930;4.038;2023-02-18T07:05:40;10.70;99.90
14511;DHT22;7341;50.930;4.038;2023-02-18T07:08:08;10.70;99.90
14511;DHT22;7341;50.930;4.038;2023-02-18T07:10:39;10.70;99.90
14511;DHT22;7341;50.930;4.038;2023-02-18T07:13:07;10.70;99.90
14511;DHT22;7341;50.930;4.038;2023-02-18T07:15:34;10.70;99.90
14511;DHT22;7341;50.930;4.038;2023-02-18T07:18:02;10.70;99.90
14511;DHT22;7341;50.930;4.038;2023-02-18T07:20:30;10.80;99.90
14511;DHT22;7341;50.930;4.038;2023-02-18T07:22:57;10.80;99.90
14511;DHT22;7341;50.930;4.038;2023-02-18T07:25:24;10.70;99.90
14511;DHT22;7341;50.930;4.038;2023-02-18T07:27:52;10.70;99.90
14511;DHT22;7341;50.930;4.038;2023-02-18T07:30:19;10.80;99.90
14511;DHT22;7341;50.930;4.038;2023-02-18T07:32:46;10.80;99.90
14511;DHT22;7341;50.930;4.038;2023-02-18T07:35:14;10.80;99.90
14511;DHT22;7341;50.930;4.038;2023-02-18T07:37:45;10.80;99.90
14511;DHT22;7341;50.930;4.038;2023-02-18T07:40:13;10.80;99.90
14511;DHT22;7341;50.930;4.038;2023-02-18T07:42:40;10.70;99.90
14511;DHT22;7341;50.930;4.038;2023-02-18T07:45:08;10.80;99.90
14511;DHT22;7341;50.930;4.038;2023-02-18T07:47:35;10.80;99.90
14511;DHT22;7341;50.930;4.038;2023-02-18T07:50:03;10.80;99.90
14511;DHT22;7341;50.930;4.038;2023-02-18T07:52:30;10.70;99.90
14511;DHT22;7341;50.930;4.038;2023-02-18T07:54:58;10.70;99.90
14511;DHT22;7341;50.930;4.038;2023-02-18T07:57:25;10.80;99.90
14511;DHT22;7341;50.930;4.038;2023-02-18T07:59:52;10.80;99.90
14511;DHT22;7341;50.930;4.038;2023-02-18T08:02:21;10.80;99.90
14511;DHT22;7341;50.930;4.038;2023-02-18T08:04:48;10.90;99.90
14511;DHT22;7341;50.930;4.038;2023-02-18T08:07:17;10.80;99.90
14511;DHT22;7341;50.930;4.038;2023-02-18T08:09:44;10.80;99.90
14511;DHT22;7341;50.930;4.038;2023-02-18T08:12:13;10.90;99.90
14511;DHT22;7341;50.930;4.038;2023-02-18T08:14:40;10.90;99.90
14511;DHT22;7341;50.930;4.038;2023-02-18T08:17:07;10.90;99.90
14511;DHT22;7341;50.930;4.038;2023-02-18T08:19:33;10.90;99.90
14511;DHT22;7341;50.930;4.038;2023-02-18T08:22:02;10.90;99.90
14511;DHT22;7341;50.930;4.038;2023-02-18T08:24:29;10.90;99.90
14511;DHT22;7341;50.930;4.038;2023-02-18T08:26:55;11.00;99.90
14511;DHT22;7341;50.930;4.038;2023-02-18T08:29:29;11.00;99.90
14511;DHT22;7341;50.930;4.038;2023-02-18T08:31:57;11.00;99.90
14511;DHT22;7341;50.930;4.038;2023-02-18T08:34:25;11.00;99.90
14511;DHT22;7341;50.930;4.038;2023-02-18T08:36:52;11.10;99.90
14511;DHT22;7341;50.930;4.038;2023-02-18T08:39:20;11.10;99.90
14511;DHT22;7341;50.930;4.038;2023-02-18T08:41:46;11.10;99.90
14511;DHT22;7341;50.930;4.038;2023-02-18T08:44:14;11.10;99.90
14511;DHT22;7341;50.930;4.038;2023-02-18T08:46:44;11.00;99.90
14511;DHT22;7341;50.930;4.038;2023-02-18T08:49:14;11.10;99.90
14511;DHT22;7341;50.930;4.038;2023-02-18T08:51:43;11.00;99.90
14511;DHT22;7341;50.930;4.038;2023-02-18T08:54:10;11.00;99.90
14511;DHT22;7341;50.930;4.038;2023-02-18T08:56:37;11.10;99.90
14511;DHT22;7341;50.930;4.038;2023-02-18T08:59:04;11.10;99.90
14511;DHT22;7341;50.930;4.038;2023-02-18T09:01:31;11.20;99.90
14511;DHT22;7341;50.930;4.038;2023-02-18T09:03:59;11.20;99.90
14511;DHT22;7341;50.930;4.038;2023-02-18T09:06:26;11.20;99.90
14511;DHT22;7341;50.930;4.038;2023-02-18T09:08:53;11.20;99.90
14511;DHT22;7341;50.930;4.038;2023-02-18T09:11:20;11.10;99.90
14511;DHT22;7341;50.930;4.038;2023-02-18T09:13:47;11.20;99.90
14511;DHT22;7341;50.930;4.038;2023-02-18T09:16:16;11.40;99.90
14511;DHT22;7341;50.930;4.038;2023-02-18T09:18:43;11.20;99.90
14511;DHT22;7341;50.930;4.038;2023-02-18T09:21:13;11.20;99.90
14511;DHT22;7341;50.930;4.038;2023-02-18T09:23:41;11.20;99.90
14511;DHT22;7341;50.930;4.038;2023-02-18T09:26:12;11.30;99.90
14511;DHT22;7341;50.930;4.038;2023-02-18T09:28:42;11.30;99.90
14511;DHT22;7341;50.930;4.038;2023-02-18T09:31:11;11.30;99.90
14511;DHT22;7341;50.930;4.038;2023-02-18T09:33:40;11.40;99.90
14511;DHT22;7341;50.930;4.038;2023-02-18T09:36:08;11.40;99.90
14511;DHT22;7341;50.930;4.038;2023-02-18T09:38:36;11.40;99.90
14511;DHT22;7341;50.930;4.038;2023-02-18T09:41:05;11.60;99.90
14511;DHT22;7341;50.930;4.038;2023-02-18T09:43:38;11.50;99.90
14511;DHT22;7341;50.930;4.038;2023-02-18T09:46:17;11.50;99.90
14511;DHT22;7341;50.930;4.038;2023-02-18T09:48:45;11.50;99.90
14511;DHT22;7341;50.930;4.038;2023-02-18T09:51:14;11.50;99.90
14511;DHT22;7341;50.930;4.038;2023-02-18T09:53:43;11.40;99.90
14511;DHT22;7341;50.930;4.038;2023-02-18T09:56:13;11.40;99.90
14511;DHT22;7341;50.930;4.038;2023-02-18T09:58:41;11.50;99.90
14511;DHT22;7341;50.930;4.038;2023-02-18T10:01:14;11.60;99.90
14511;DHT22;7341;50.930;4.038;2023-02-18T10:03:43;11.60;99.90
14511;DHT22;7341;50.930;4.038;2023-02-18T10:06:15;11.50;99.90
14511;DHT22;7341;50.930;4.038;2023-02-18T10:08:47;11.60;99.90
14511;DHT22;7341;50.930;4.038;2023-02-18T10:11:16;11.60;99.90
14511;DHT22;7341;50.930;4.038;2023-02-18T10:13:43;11.70;99.90
14511;DHT22;7341;50.930;4.038;2023-02-18T10:16:16;11.60;99.90
14511;DHT22;7341;50.930;4.038;2023-02-18T10:18:45;11.60;99.90
14511;DHT22;7341;50.930;4.038;2023-02-18T10:21:15;11.70;99.90
14511;DHT22;7341;50.930;4.038;2023-02-18T10:23:53;11.70;99.90
14511;DHT22;7341;50.930;4.038;2023-02-18T10:26:23;11.70;99.90
14511;DHT22;7341;50.930;4.038;2023-02-18T10:28:50;11.70;99.90
14511;DHT22;7341;50.930;4.038;2023-02-18T10:31:21;11.70;99.90
14511;DHT22;7341;50.930;4.038;2023-02-18T10:33:53;11.70;99.90
14511;DHT22;7341;50.930;4.038;2023-02-18T10:36:24;11.70;99.90
14511;DHT22;7341;50.930;4.038;2023-02-18T10:42:13;11.80;99.90
14511;DHT22;7341;50.930;4.038;2023-02-18T10:44:50;11.80;99.90
14511;DHT22;7341;50.930;4.038;2023-02-18T10:47:32;11.80;99.90
14511;DHT22;7341;50.930;4.038;2023-02-18T10:50:08;11.80;99.90
14511;DHT22;7341;50.930;4.038;2023-02-18T10:52:39;11.80;99.90
14511;DHT22;7341;50.930;4.038;2023-02-18T10:55:09;11.80;99.90
14511;DHT22;7341;50.930;4.038;2023-02-18T10:57:45;11.80;99.90
14511;DHT22;7341;50.930;4.038;2023-02-18T11:00:17;11.80;99.90
14511;DHT22;7341;50.930;4.038;2023-02-18T11:02:45;11.90;99.90
14511;DHT22;7341;50.930;4.038;2023-02-18T11:05:20;11.90;99.90
14511;DHT22;7341;50.930;4.038;2023-02-18T11:07:51;11.90;99.90
14511;DHT22;7341;50.930;4.038;2023-02-18T11:10:24;11.90;99.90
14511;DHT22;7341;50.930;4.038;2023-02-18T11:12:56;11.90;99.90
14511;DHT22;7341;50.930;4.038;2023-02-18T11:15:24;11.90;99.90
14511;DHT22;7341;50.930;4.038;2023-02-18T11:17:53;12.00;99.90
14511;DHT22;7341;50.930;4.038;2023-02-18T11:20:24;12.00;99.90
14511;DHT22;7341;50.930;4.038;2023-02-18T11:22:51;12.10;99.90
14511;DHT22;7341;50.930;4.038;2023-02-18T11:25:24;12.10;99.90
14511;DHT22;7341;50.930;4.038;2023-02-18T11:27:55;12.10;99.90
14511;DHT22;7341;50.930;4.038;2023-02-18T11:30:24;12.10;99.90
14511;DHT22;7341;50.930;4.038;2023-02-18T11:32:54;12.10;99.90
14511;DHT22;7341;50.930;4.038;2023-02-18T11:35:24;12.20;99.90
14511;DHT22;7341;50.930;4.038;2023-02-18T11:37:51;12.20;99.90
14511;DHT22;7341;50.930;4.038;2023-02-18T11:40:21;12.20;99.90
14511;DHT22;7341;50.930;4.038;2023-02-18T11:42:49;12.30;99.90
14511;DHT22;7341;50.930;4.038;2023-02-18T11:45:28;12.30;99.90
14511;DHT22;7341;50.930;4.038;2023-02-18T11:48:00;12.30;99.90
14511;DHT22;7341;50.930;4.038;2023-02-18T11:50:31;12.40;99.90
14511;DHT22;7341;50.930;4.038;2023-02-18T11:52:58;12.40;99.90
14511;DHT22;7341;50.930;4.038;2023-02-18T11:55:26;12.50;99.90
14511;DHT22;7341;50.930;4.038;2023-02-18T11:57:56;12.50;99.90
14511;DHT22;7341;50.930;4.038;2023-02-18T12:00:35;12.50;99.90
14511;DHT22;7341;50.930;4.038;2023-02-18T12:03:11;12.50;99.90
14511;DHT22;7341;50.930;4.038;2023-02-18T12:05:41;12.50;99.90
14511;DHT22;7341;50.930;4.038;2023-02-18T12:08:13;12.50;99.90
14511;DHT22;7341;50.930;4.038;2023-02-18T12:10:46;12.50;99.90
14511;DHT22;7341;50.930;4.038;2023-02-18T12:13:22;12.60;99.90
14511;DHT22;7341;50.930;4.038;2023-02-18T12:16:00;12.50;99.90
14511;DHT22;7341;50.930;4.038;2023-02-18T12:18:44;12.50;99.90
14511;DHT22;7341;50.930;4.038;2023-02-18T12:21:23;12.60;99.90
14511;DHT22;7341;50.930;4.038;2023-02-18T12:24:00;12.60;99.90
14511;DHT22;7341;50.930;4.038;2023-02-18T12:26:37;12.60;99.90
14511;DHT22;7341;50.930;4.038;2023-02-18T12:29:27;12.60;99.90
14511;DHT22;7341;50.930;4.038;2023-02-18T12:32:07;12.60;99.90
14511;DHT22;7341;50.930;4.038;2023-02-18T12:34:50;12.50;99.90
14511;DHT22;7341;50.930;4.038;2023-02-18T12:37:38;12.50;99.90
14511;DHT22;7341;50.930;4.038;2023-02-18T12:40:28;12.50;99.90
14511;DHT22;7341;50.930;4.038;2023-02-18T12:43:08;12.40;99.90
14511;DHT22;7341;50.930;4.038;2023-02-18T12:46:16;12.30;99.90
14511;DHT22;7341;50.930;4.038;2023-02-18T12:49:02;12.30;99.90
14511;DHT22;7341;50.930;4.038;2023-02-18T12:51:40;12.20;99.90
14511;DHT22;7341;50.930;4.038;2023-02-18T12:54:45;12.00;99.90
14511;DHT22;7341;50.930;4.038;2023-02-18T12:57:28;11.90;99.90
14511;DHT22;7341;50.930;4.038;2023-02-18T13:00:22;11.80;99.90
14511;DHT22;7341;50.930;4.038;2023-02-18T13:03:17;11.80;99.90
14511;DHT22;7341;50.930;4.038;2023-02-18T13:05:57;11.70;99.90
14511;DHT22;7341;50.930;4.038;2023-02-18T13:08:36;11.80;99.90
14511;DHT22;7341;50.930;4.038;2023-02-18T13:11:16;11.80;99.90
14511;DHT22;7341;50.930;4.038;2023-02-18T13:13:49;11.80;99.90
14511;DHT22;7341;50.930;4.038;2023-02-18T13:16:19;11.80;99.90
14511;DHT22;7341;50.930;4.038;2023-02-18T13:18:57;11.70;99.90
14511;DHT22;7341;50.930;4.038;2023-02-18T13:21:26;11.70;99.90
14511;DHT22;7341;50.930;4.038;2023-02-18T13:23:55;11.50;99.90
14511;DHT22;7341;50.930;4.038;2023-02-18T13:26:24;11.50;99.90
14511;DHT22;7341;50.930;4.038;2023-02-18T13:28:59;11.40;99.90
14511;DHT22;7341;50.930;4.038;2023-02-18T13:31:38;11.40;99.90
14511;DHT22;7341;50.930;4.038;2023-02-18T13:34:12;11.40;99.90
14511;DHT22;7341;50.930;4.038;2023-02-18T13:36:52;11.40;99.90
14511;DHT22;7341;50.930;4.038;2023-02-18T13:39:21;11.40;99.90
14511;DHT22;7341;50.930;4.038;2023-02-18T13:41:50;11.50;99.90
14511;DHT22;7341;50.930;4.038;2023-02-18T13:44:39;11.50;99.90
14511;DHT22;7341;50.930;4.038;2023-02-18T13:47:07;11.50;99.90
14511;DHT22;7341;50.930;4.038;2023-02-18T13:49:37;11.50;99.90
14511;DHT22;7341;50.930;4.038;2023-02-18T13:52:14;11.60;99.90
14511;DHT22;7341;50.930;4.038;2023-02-18T13:54:45;11.60;99.90
14511;DHT22;7341;50.930;4.038;2023-02-18T13:57:15;11.60;99.90
14511;DHT22;7341;50.930;4.038;2023-02-18T13:59:45;11.60;99.90
14511;DHT22;7341;50.930;4.038;2023-02-18T14:02:33;11.60;99.90
14511;DHT22;7341;50.930;4.038;2023-02-18T14:05:18;11.60;99.90
14511;DHT22;7341;50.930;4.038;2023-02-18T14:07:49;11.50;99.90
14511;DHT22;7341;50.930;4.038;2023-02-18T14:10:34;11.50;99.90
14511;DHT22;7341;50.930;4.038;2023-02-18T14:13:20;11.50;99.90
14511;DHT22;7341;50.930;4.038;2023-02-18T14:15:54;11.50;99.90
14511;DHT22;7341;50.930;4.038;2023-02-18T14:18:32;11.50;99.90
14511;DHT22;7341;50.930;4.038;2023-02-18T14:21:04;11.50;99.90
14511;DHT22;7341;50.930;4.038;2023-02-18T14:23:55;11.40;99.90
14511;DHT22;7341;50.930;4.038;2023-02-18T14:26:29;11.40;99.90
14511;DHT22;7341;50.930;4.038;2023-02-18T14:29:00;11.40;99.90
14511;DHT22;7341;50.930;4.038;2023-02-18T14:31:34;11.40;99.90
14511;DHT22;7341;50.930;4.038;2023-02-18T14:37:22;11.40;99.90
14511;DHT22;7341;50.930;4.038;2023-02-18T14:39:59;11.40;99.90
14511;DHT22;7341;50.930;4.038;2023-02-18T14:42:37;11.30;99.90
14511;DHT22;7341;50.930;4.038;2023-02-18T14:45:14;11.40;99.90
14511;DHT22;7341;50.930;4.038;2023-02-18T14:48:04;11.40;99.90
14511;DHT22;7341;50.930;4.038;2023-02-18T14:50:37;11.50;99.90
14511;DHT22;7341;50.930;4.038;2023-02-18T14:53:10;11.50;99.90
14511;DHT22;7341;50.930;4.038;2023-02-18T14:55:46;11.50;99.90
14511;DHT22;7341;50.930;4.038;2023-02-18T14:58:25;11.40;99.90
14511;DHT22;7341;50.930;4.038;2023-02-18T15:00:53;11.50;99.90
14511;DHT22;7341;50.930;4.038;2023-02-18T15:03:21;11.40;99.90
14511;DHT22;7341;50.930;4.038;2023-02-18T15:05:49;11.50;99.90
14511;DHT22;7341;50.930;4.038;2023-02-18T15:08:18;11.50;99.90
14511;DHT22;7341;50.930;4.038;2023-02-18T15:10:49;11.40;99.90
14511;DHT22;7341;50.930;4.038;2023-02-18T15:13:19;11.50;99.90
14511;DHT22;7341;50.930;4.038;2023-02-18T15:15:49;11.50;99.90
14511;DHT22;7341;50.930;4.038;2023-02-18T15:18:26;11.50;99.90
14511;DHT22;7341;50.930;4.038;2023-02-18T15:20:54;11.40;99.90
14511;DHT22;7341;50.930;4.038;2023-02-18T15:23:20;11.50;99.90
14511;DHT22;7341;50.930;4.038;2023-02-18T15:25:51;11.50;99.90
14511;DHT22;7341;50.930;4.038;2023-02-18T15:28:24;11.60;99.90
14511;DHT22;7341;50.930;4.038;2023-02-18T15:30:51;11.50;99.90
14511;DHT22;7341;50.930;4.038;2023-02-18T15:33:19;11.60;99.90
14511;DHT22;7341;50.930;4.038;2023-02-18T15:35:47;11.70;99.90
14511;DHT22;7341;50.930;4.038;2023-02-18T15:38:15;11.70;99.90
14511;DHT22;7341;50.930;4.038;2023-02-18T15:40:43;11.60;99.90
14511;DHT22;7341;50.930;4.038;2023-02-18T15:43:17;11.60;99.90
14511;DHT22;7341;50.930;4.038;2023-02-18T15:45:48;11.50;99.90
14511;DHT22;7341;50.930;4.038;2023-02-18T15:48:26;11.50;99.90
14511;DHT22;7341;50.930;4.038;2023-02-18T15:50:55;11.50;99.90
14511;DHT22;7341;50.930;4.038;2023-02-18T15:53:24;11.60;99.90
14511;DHT22;7341;50.930;4.038;2023-02-18T15:55:52;11.60;99.90
14511;DHT22;7341;50.930;4.038;2023-02-18T15:58:25;11.60;99.90
14511;DHT22;7341;50.930;4.038;2023-02-18T16:00:55;11.60;99.90
14511;DHT22;7341;50.930;4.038;2023-02-18T16:03:24;11.60;99.90
14511;DHT22;7341;50.930;4.038;2023-02-18T16:06:08;11.60;99.90
14511;DHT22;7341;50.930;4.038;2023-02-18T16:08:35;11.60;99.90
14511;DHT22;7341;50.930;4.038;2023-02-18T16:11:04;11.50;99.90
14511;DHT22;7341;50.930;4.038;2023-02-18T16:13:35;11.50;99.90
14511;DHT22;7341;50.930;4.038;2023-02-18T16:16:02;11.50;99.90
14511;DHT22;7341;50.930;4.038;2023-02-18T16:18:36;11.60;99.90
14511;DHT22;7341;50.930;4.038;2023-02-18T16:21:06;11.60;99.90
14511;DHT22;7341;50.930;4.038;2023-02-18T16:23:51;11.60;99.90
14511;DHT22;7341;50.930;4.038;2023-02-18T16:26:27;11.60;99.90
14511;DHT22;7341;50.930;4.038;2023-02-18T16:29:03;11.50;99.90